Time;durP1;ratioP1;P1;durP2;ratioP2;P2;SDS_P1;SDS_P2;PMS_P1;PMS_P2;Temp;Humidity;BMP_temperature;BMP_pressure;BME280_temperature;BME280_humidity;BME280_pressure;Samples;Min_cycle;Max_cycle;Signal;HPM_P1;HPM_P2
2021/11/10 00:00:16;;;;;;;8.17;3.70;;;4.90;98.50;;;;;;5006907;28;20051;-74
2021/11/10 00:02:43;;;;;;;8.53;3.70;;;4.90;98.40;;;;;;4992179;28;20105;-74
2021/11/10 00:05:09;;;;;;;8.87;3.60;;;4.90;98.40;;;;;;4990640;28;20030;-73
2021/11/10 00:07:35;;;;;;;7.40;3.37;;;4.90;98.40;;;;;;5006308;28;20026;-73
2021/11/10 00:10:00;;;;;;;6.50;3.77;;;4.80;98.40;;;;;;4990122;28;20065;-73
2021/11/10 00:12:27;;;;;;;8.20;4.20;;;4.60;98.50;;;;;;4991518;28;20069;-73
2021/11/10 00:14:52;;;;;;;8.23;3.50;;;4.50;98.70;;;;;;4990026;28;20038;-74
2021/11/10 00:17:18;;;;;;;10.73;4.20;;;4.60;98.90;;;;;;4990460;28;20117;-73
2021/11/10 00:19:44;;;;;;;7.20;3.67;;;4.60;98.90;;;;;;4991288;28;20029;-74
2021/11/10 00:22:10;;;;;;;7.80;4.10;;;4.60;98.80;;;;;;5006868;28;20027;-73
2021/11/10 00:24:35;;;;;;;6.03;4.00;;;4.60;98.80;;;;;;4992100;28;20105;-73
2021/11/10 00:27:01;;;;;;;8.87;4.40;;;4.60;98.80;;;;;;4988391;28;20699;-74
2021/11/10 00:29:27;;;;;;;10.87;4.47;;;4.70;98.80;;;;;;4992416;28;20038;-73
2021/11/10 00:31:52;;;;;;;9.10;3.93;;;4.70;98.80;;;;;;4994945;28;20033;-74
2021/11/10 00:34:18;;;;;;;8.53;3.83;;;4.70;98.70;;;;;;5012260;28;20072;-73
2021/11/10 00:36:45;;;;;;;11.63;4.00;;;4.70;98.70;;;;;;5013794;28;20569;-74
2021/11/10 00:39:11;;;;;;;10.57;4.87;;;4.70;98.70;;;;;;5013880;28;20356;-73
2021/11/10 00:41:37;;;;;;;9.20;4.63;;;4.70;98.70;;;;;;4996530;28;20101;-74
2021/11/10 00:44:03;;;;;;;8.67;4.30;;;4.60;98.90;;;;;;4994140;28;20057;-73
2021/11/10 00:46:30;;;;;;;8.83;4.60;;;4.60;99.10;;;;;;4994515;28;20490;-73
2021/11/10 00:48:56;;;;;;;8.77;4.37;;;4.70;99.20;;;;;;4994534;28;20023;-74
2021/11/10 00:51:22;;;;;;;9.37;4.43;;;4.60;99.40;;;;;;4995896;28;20037;-74
2021/11/10 00:53:48;;;;;;;7.40;4.00;;;4.60;99.10;;;;;;4993725;28;20029;-74
2021/11/10 00:56:14;;;;;;;10.73;4.33;;;4.40;99.20;;;;;;4996051;28;20026;-73
2021/11/10 00:58:39;;;;;;;9.50;4.43;;;4.40;99.30;;;;;;4995400;28;20050;-74
2021/11/10 01:01:05;;;;;;;8.23;4.27;;;4.40;99.40;;;;;;4993189;28;20103;-74
2021/11/10 01:03:31;;;;;;;8.50;4.00;;;4.40;99.20;;;;;;4994200;28;20081;-73
2021/11/10 01:05:57;;;;;;;9.33;4.37;;;4.40;99.10;;;;;;4993139;28;20042;-73
2021/11/10 01:08:24;;;;;;;7.83;4.20;;;4.30;99.20;;;;;;4994264;28;20030;-74
2021/11/10 01:10:50;;;;;;;8.50;3.67;;;4.30;98.90;;;;;;4993192;28;20521;-74
2021/11/10 01:13:16;;;;;;;6.97;3.90;;;4.20;99.00;;;;;;4994265;28;20058;-73
2021/11/10 01:15:42;;;;;;;10.93;3.77;;;4.10;98.90;;;;;;4995525;28;20430;-74
2021/11/10 01:18:08;;;;;;;6.87;3.40;;;4.10;99.00;;;;;;4993465;28;20035;-74
2021/11/10 01:20:34;;;;;;;9.67;3.83;;;4.10;99.00;;;;;;4993593;28;20054;-73
2021/11/10 01:23:01;;;;;;;7.27;4.00;;;4.00;98.90;;;;;;4993155;28;20460;-73
2021/11/10 01:25:27;;;;;;;8.57;3.63;;;4.10;98.90;;;;;;4995056;28;20479;-74
2021/11/10 01:27:53;;;;;;;8.83;4.00;;;4.00;99.00;;;;;;4993066;28;20034;-74
2021/11/10 01:30:19;;;;;;;7.70;4.20;;;3.90;99.00;;;;;;4993401;28;20034;-74
2021/11/10 01:32:46;;;;;;;10.97;4.57;;;3.90;99.10;;;;;;4993887;28;20038;-73
2021/11/10 01:35:11;;;;;;;8.07;3.77;;;3.90;99.30;;;;;;4993041;28;20492;-75
2021/11/10 01:37:37;;;;;;;11.50;4.37;;;3.80;99.20;;;;;;4993137;28;20034;-74
2021/11/10 01:40:04;;;;;;;9.33;3.80;;;3.80;99.30;;;;;;4992079;28;20159;-74
2021/11/10 01:42:30;;;;;;;7.37;3.73;;;3.70;99.40;;;;;;5026066;28;20112;-73
2021/11/10 01:44:57;;;;;;;9.57;3.70;;;3.70;99.60;;;;;;4992589;28;20113;-74
2021/11/10 01:47:22;;;;;;;8.17;3.57;;;3.70;99.80;;;;;;4993295;28;20057;-74
2021/11/10 01:49:49;;;;;;;8.77;4.07;;;3.70;99.40;;;;;;5025435;28;20407;-74
2021/11/10 01:52:14;;;;;;;7.97;3.90;;;3.60;99.60;;;;;;4992836;28;20053;-74
2021/11/10 01:54:41;;;;;;;7.73;3.93;;;3.60;99.70;;;;;;4993566;28;20078;-74
2021/11/10 01:57:09;;;;;;;6.63;3.50;;;3.60;99.80;;;;;;4992973;28;20026;-74
2021/11/10 01:59:39;;;;;;;6.97;3.93;;;3.60;99.70;;;;;;4992824;28;20046;-74
2021/11/10 02:02:09;;;;;;;8.13;4.13;;;3.60;99.40;;;;;;4993508;28;20026;-73
2021/11/10 02:04:38;;;;;;;9.17;3.50;;;3.60;99.60;;;;;;4993342;28;20033;-74
2021/11/10 02:07:04;;;;;;;7.03;3.60;;;3.70;99.40;;;;;;4992750;28;20033;-74
2021/11/10 02:09:30;;;;;;;7.30;3.90;;;3.50;99.30;;;;;;4994290;28;20038;-74
2021/11/10 02:11:57;;;;;;;6.70;3.90;;;3.50;99.50;;;;;;4992059;28;20361;-74
2021/11/10 02:14:26;;;;;;;12.33;4.13;;;3.50;99.40;;;;;;4992610;28;20054;-74
2021/11/10 02:16:52;;;;;;;47.87;13.50;;;3.40;99.60;;;;;;4994002;28;20031;-74
2021/11/10 02:19:19;;;;;;;59.73;16.40;;;3.40;99.60;;;;;;4992978;28;20038;-74
2021/11/10 02:21:48;;;;;;;50.73;15.07;;;3.30;99.70;;;;;;4992601;28;20019;-74
2021/11/10 02:24:15;;;;;;;51.13;14.63;;;3.30;99.70;;;;;;4993598;28;20018;-74
2021/11/10 02:26:42;;;;;;;42.13;13.07;;;3.30;99.90;;;;;;4993111;28;20069;-74
2021/11/10 02:29:12;;;;;;;41.53;13.03;;;3.30;99.80;;;;;;4993810;28;20024;-74
2021/11/10 02:31:38;;;;;;;39.00;12.23;;;3.30;99.80;;;;;;4992704;28;20018;-74
2021/11/10 02:34:04;;;;;;;20.40;8.40;;;3.30;99.90;;;;;;4991622;28;20475;-73
2021/11/10 02:36:31;;;;;;;26.67;8.93;;;3.30;99.90;;;;;;5009009;28;20475;-73
2021/11/10 02:39:00;;;;;;;28.93;9.87;;;3.20;99.80;;;;;;5008352;28;20026;-74
2021/11/10 02:41:29;;;;;;;28.77;10.43;;;3.10;99.90;;;;;;4993890;28;20029;-73
2021/11/10 02:43:55;;;;;;;29.13;9.53;;;3.10;99.90;;;;;;4992325;28;20033;-74
2021/11/10 02:46:21;;;;;;;24.77;9.13;;;3.10;99.90;;;;;;4993417;28;20022;-74
2021/11/10 02:48:47;;;;;;;36.13;11.30;;;3.10;99.90;;;;;;4993378;28;20081;-73
2021/11/10 02:51:13;;;;;;;42.70;13.77;;;3.20;99.80;;;;;;4991614;28;20027;-73
2021/11/10 02:53:39;;;;;;;45.67;14.63;;;3.20;99.50;;;;;;4991267;28;20065;-74
2021/11/10 02:56:05;;;;;;;41.40;12.70;;;3.20;99.40;;;;;;5023817;28;20121;-74
2021/11/10 02:58:32;;;;;;;41.73;13.17;;;3.10;99.20;;;;;;5024668;28;20483;-74
2021/11/10 03:00:58;;;;;;;37.73;11.80;;;3.10;99.50;;;;;;4990658;28;20046;-74
2021/11/10 03:03:24;;;;;;;24.47;8.63;;;3.10;99.70;;;;;;4991590;28;20045;-74
2021/11/10 03:05:49;;;;;;;21.00;7.73;;;3.00;99.50;;;;;;4992553;28;20030;-75
2021/11/10 03:08:21;;;;;;;18.40;6.77;;;3.00;99.60;;;;;;4993004;28;20073;-74
2021/11/10 03:10:47;;;;;;;;;;;3.00;99.60;;;;;;4992109;28;20066;-74
2021/11/10 03:13:14;;;;;;;18.20;6.03;;;2.90;99.70;;;;;;4990862;28;20363;-73
2021/11/10 03:15:42;;;;;;;12.33;5.23;;;2.90;99.80;;;;;;4991890;28;20033;-74
2021/11/10 03:18:09;;;;;;;10.73;5.17;;;2.90;99.80;;;;;;4992812;28;20027;-74
2021/11/10 03:20:34;;;;;;;8.40;3.90;;;2.90;99.90;;;;;;4991912;28;20486;-73
2021/11/10 03:23:01;;;;;;;10.90;3.77;;;2.80;99.90;;;;;;4991553;28;20046;-74
2021/11/10 03:25:27;;;;;;;6.63;3.63;;;2.70;99.90;;;;;;4993320;28;20463;-75
2021/11/10 03:27:52;;;;;;;7.30;3.67;;;2.70;99.90;;;;;;4991554;28;20149;-74
2021/11/10 03:30:19;;;;;;;10.23;4.30;;;2.70;99.90;;;;;;4993296;28;20367;-73
2021/11/10 03:32:45;;;;;;;10.57;4.37;;;2.70;99.90;;;;;;4992167;28;20022;-73
2021/11/10 03:35:12;;;;;;;9.40;3.63;;;2.70;99.90;;;;;;4991406;28;20019;-73
2021/11/10 03:37:39;;;;;;;7.20;3.90;;;2.70;99.90;;;;;;4993489;28;20027;-73
2021/11/10 03:40:06;;;;;;;8.93;4.30;;;2.70;99.90;;;;;;4991348;28;20038;-74
2021/11/10 03:42:32;;;;;;;7.03;3.83;;;2.70;99.90;;;;;;4992061;28;20348;-74
2021/11/10 03:44:59;;;;;;;7.67;3.87;;;2.70;99.90;;;;;;4991323;28;20060;-74
2021/11/10 03:47:25;;;;;;;6.83;3.83;;;2.80;99.60;;;;;;4993184;28;20448;-74
2021/11/10 03:49:51;;;;;;;7.43;3.97;;;2.70;99.40;;;;;;4991250;28;20030;-74
2021/11/10 03:52:17;;;;;;;8.37;3.80;;;2.60;99.50;;;;;;4991872;28;20018;-73
2021/11/10 03:54:44;;;;;;;7.50;3.60;;;2.60;99.50;;;;;;4993070;28;20086;-73
2021/11/10 03:57:09;;;;;;;7.37;3.73;;;2.50;99.60;;;;;;4991252;28;20305;-73
2021/11/10 03:59:36;;;;;;;10.37;4.07;;;2.50;99.90;;;;;;4991788;28;20415;-74
2021/11/10 04:02:02;;;;;;;7.57;3.50;;;2.50;99.90;;;;;;4992539;28;20034;-73
2021/11/10 04:04:28;;;;;;;9.33;3.70;;;2.40;99.90;;;;;;4991684;28;20056;-74
2021/11/10 04:06:54;;;;;;;6.67;3.80;;;2.40;99.90;;;;;;4991083;28;20057;-74
2021/11/10 04:09:19;;;;;;;8.63;3.80;;;2.40;99.90;;;;;;4993136;28;20035;-74
2021/11/10 04:11:45;;;;;;;8.47;3.93;;;2.40;99.90;;;;;;4996785;28;20033;-73
2021/11/10 04:14:11;;;;;;;6.90;3.50;;;2.40;99.90;;;;;;4994855;28;20082;-74
2021/11/10 04:16:36;;;;;;;5.87;3.47;;;2.50;99.90;;;;;;4996649;28;20337;-74
2021/11/10 04:19:02;;;;;;;7.03;3.53;;;2.50;99.90;;;;;;4994751;28;20074;-74
2021/11/10 04:21:29;;;;;;;7.80;3.70;;;2.50;99.90;;;;;;4996563;28;20026;-73
2021/11/10 04:23:56;;;;;;;8.07;3.63;;;2.50;99.90;;;;;;4991185;28;20028;-73
2021/11/10 04:26:23;;;;;;;9.30;3.60;;;2.50;99.90;;;;;;4993729;28;20109;-74
2021/11/10 04:28:50;;;;;;;7.40;3.23;;;2.50;99.90;;;;;;4989760;28;20031;-74
2021/11/10 04:31:16;;;;;;;7.90;3.63;;;2.40;99.90;;;;;;4993659;28;20062;-74
2021/11/10 04:33:42;;;;;;;7.83;3.40;;;2.40;99.90;;;;;;4994359;28;20026;-73
2021/11/10 04:36:08;;;;;;;4.77;3.03;;;2.40;99.90;;;;;;4994477;28;20057;-72
2021/11/10 04:38:34;;;;;;;5.63;3.57;;;2.40;99.90;;;;;;4989592;28;20065;-74
2021/11/10 04:41:00;;;;;;;5.83;3.47;;;2.40;99.90;;;;;;4980405;28;20451;-73
2021/11/10 04:43:25;;;;;;;7.87;3.53;;;2.40;99.90;;;;;;5011294;28;20456;-73
2021/11/10 04:46:00;;;;;;;7.80;3.60;;;2.40;99.90;;;;;;5010350;28;20088;-73
2021/11/10 04:48:26;;;;;;;9.13;3.37;;;2.40;99.90;;;;;;4993808;28;20335;-73
2021/11/10 04:50:51;;;;;;;9.13;4.07;;;2.40;99.90;;;;;;4993851;28;20034;-74
2021/11/10 04:53:17;;;;;;;8.37;3.73;;;2.40;99.90;;;;;;5009632;28;20022;-72
2021/11/10 04:55:43;;;;;;;10.37;3.60;;;2.40;99.90;;;;;;5009057;28;20073;-73
2021/11/10 04:58:09;;;;;;;7.47;3.80;;;2.30;99.90;;;;;;4991788;28;20029;-73
2021/11/10 05:00:35;;;;;;;8.70;3.90;;;2.40;99.90;;;;;;5008949;28;20108;-73
2021/11/10 05:03:00;;;;;;;7.07;3.20;;;2.50;99.90;;;;;;5008521;28;20145;-72
2021/11/10 05:05:26;;;;;;;7.60;4.00;;;2.40;99.90;;;;;;4992941;28;20022;-73
2021/11/10 05:07:51;;;;;;;10.60;4.13;;;2.40;99.90;;;;;;5008631;28;20396;-74
2021/11/10 05:10:18;;;;;;;7.20;3.47;;;2.40;99.90;;;;;;5008152;28;20033;-73
2021/11/10 05:12:44;;;;;;;5.97;3.70;;;2.40;99.90;;;;;;4993612;28;20105;-73
2021/11/10 05:15:12;;;;;;;9.53;4.07;;;2.40;99.90;;;;;;4992153;28;20165;-74
2021/11/10 05:17:38;;;;;;;9.73;3.83;;;2.40;99.90;;;;;;4993820;28;20061;-74
2021/11/10 05:20:05;;;;;;;6.10;3.20;;;2.40;99.90;;;;;;4991404;28;20054;-74
2021/11/10 05:22:30;;;;;;;4.93;3.13;;;2.40;99.90;;;;;;4992365;28;20018;-74
2021/11/10 05:24:56;;;;;;;5.03;3.23;;;2.40;99.90;;;;;;5008405;28;20034;-74
2021/11/10 05:27:22;;;;;;;7.47;3.80;;;2.50;99.90;;;;;;4994259;28;20486;-74
2021/11/10 05:29:47;;;;;;;8.20;3.00;;;2.50;99.90;;;;;;4992076;28;20037;-73
2021/11/10 05:32:13;;;;;;;8.13;3.47;;;2.40;99.90;;;;;;4992660;28;20626;-74
2021/11/10 05:34:39;;;;;;;6.57;3.20;;;2.40;99.90;;;;;;5008837;28;20026;-73
2021/11/10 05:37:05;;;;;;;6.23;3.00;;;2.40;99.90;;;;;;4992261;28;20027;-73
2021/11/10 05:39:31;;;;;;;6.80;3.40;;;2.40;99.90;;;;;;4991703;28;20038;-74
2021/11/10 05:41:58;;;;;;;8.27;3.50;;;2.40;99.90;;;;;;5007886;28;20518;-74
2021/11/10 05:44:24;;;;;;;6.27;3.50;;;2.50;99.90;;;;;;4992383;28;20022;-74
2021/11/10 05:46:49;;;;;;;7.67;3.27;;;2.40;99.90;;;;;;4992501;28;20022;-74
2021/11/10 05:49:15;;;;;;;7.23;3.47;;;2.40;99.90;;;;;;5008122;28;20029;-74
2021/11/10 05:51:41;;;;;;;5.60;3.20;;;2.40;99.90;;;;;;4992372;28;20022;-73
2021/11/10 05:54:07;;;;;;;9.23;4.00;;;2.40;99.90;;;;;;5007999;28;20049;-73
2021/11/10 05:56:33;;;;;;;5.13;3.30;;;2.40;99.90;;;;;;4993466;28;20025;-73
2021/11/10 05:59:00;;;;;;;7.20;2.97;;;2.40;99.90;;;;;;4992496;28;20149;-73
2021/11/10 06:01:27;;;;;;;6.63;3.50;;;2.40;99.90;;;;;;4992391;28;20014;-74
2021/11/10 06:03:54;;;;;;;6.63;3.43;;;2.40;99.90;;;;;;4991201;28;20117;-74
2021/11/10 06:06:21;;;;;;;6.23;3.40;;;2.30;99.90;;;;;;5008228;28;20022;-73
2021/11/10 06:08:47;;;;;;;6.90;3.63;;;2.40;99.90;;;;;;4991789;28;20030;-73
2021/11/10 06:11:13;;;;;;;8.83;4.43;;;2.40;99.90;;;;;;4991075;28;20383;-74
2021/11/10 06:13:39;;;;;;;12.80;5.37;;;2.40;99.90;;;;;;4992775;28;20097;-73
2021/11/10 06:16:06;;;;;;;8.60;5.10;;;2.40;99.90;;;;;;4991070;28;20014;-74
2021/11/10 06:18:32;;;;;;;9.63;4.93;;;2.40;99.90;;;;;;4993947;28;20072;-73
2021/11/10 06:21:00;;;;;;;6.83;3.90;;;2.40;99.90;;;;;;4992051;28;20034;-73
2021/11/10 06:23:26;;;;;;;6.30;4.20;;;2.40;99.80;;;;;;4992691;28;20094;-73
2021/11/10 06:25:52;;;;;;;10.70;4.90;;;2.40;99.70;;;;;;4993560;28;20054;-73
2021/11/10 06:28:18;;;;;;;13.33;5.77;;;2.30;99.90;;;;;;4991941;28;20526;-74
2021/11/10 06:30:43;;;;;;;11.90;5.80;;;2.30;99.90;;;;;;5008580;28;20026;-73
2021/11/10 06:33:09;;;;;;;12.80;5.53;;;2.20;99.90;;;;;;4992982;28;20033;-74
2021/11/10 06:35:35;;;;;;;9.33;4.90;;;2.20;99.90;;;;;;4992238;28;20084;-73
2021/11/10 06:38:01;;;;;;;10.47;4.60;;;2.20;99.90;;;;;;5008642;28;20444;-74
2021/11/10 06:40:27;;;;;;;8.77;4.60;;;2.10;99.90;;;;;;5009058;28;20085;-74
2021/11/10 06:42:52;;;;;;;9.27;4.57;;;2.10;99.90;;;;;;5008609;28;20027;-74
2021/11/10 06:45:18;;;;;;;6.27;3.60;;;2.00;99.90;;;;;;5009153;28;20018;-74
2021/11/10 06:47:44;;;;;;;7.70;4.40;;;2.00;99.90;;;;;;4993588;28;20434;-73
2021/11/10 06:50:11;;;;;;;7.20;3.70;;;2.10;99.90;;;;;;4993365;28;20118;-74
2021/11/10 06:52:37;;;;;;;9.63;3.90;;;2.10;99.90;;;;;;4993810;28;20109;-74
2021/11/10 06:55:07;;;;;;;9.07;4.17;;;2.10;99.90;;;;;;4992780;28;20463;-74
2021/11/10 06:57:32;;;;;;;11.83;4.60;;;2.10;99.90;;;;;;4993248;28;20041;-73
2021/11/10 06:59:59;;;;;;;10.10;4.40;;;2.00;99.90;;;;;;5007893;28;20411;-73
2021/11/10 07:02:24;;;;;;;7.43;4.30;;;2.10;99.90;;;;;;4996453;28;20022;-73
2021/11/10 07:04:50;;;;;;;11.20;3.93;;;2.10;99.90;;;;;;5006989;28;20022;-73
2021/11/10 07:07:16;;;;;;;11.93;4.30;;;2.20;99.90;;;;;;5006732;28;20030;-74
2021/11/10 07:09:42;;;;;;;7.73;4.17;;;2.30;99.90;;;;;;4991642;28;20217;-73
2021/11/10 07:12:08;;;;;;;5.23;3.50;;;2.30;99.90;;;;;;5006388;28;20032;-73
2021/11/10 07:14:34;;;;;;;5.80;3.67;;;2.30;99.90;;;;;;4992407;28;20026;-73
2021/11/10 07:17:00;;;;;;;6.37;3.50;;;2.40;99.90;;;;;;4991192;28;20026;-74
2021/11/10 07:19:26;;;;;;;8.83;4.87;;;2.60;99.90;;;;;;5006057;28;20388;-73
2021/11/10 07:21:51;;;;;;;9.00;4.10;;;2.60;99.90;;;;;;4991907;28;20037;-73
2021/11/10 07:24:17;;;;;;;8.00;4.00;;;2.60;99.90;;;;;;4992164;28;20034;-73
2021/11/10 07:26:43;;;;;;;7.47;3.93;;;2.60;99.90;;;;;;5007001;28;20022;-73
2021/11/10 07:29:09;;;;;;;10.70;4.33;;;2.60;99.90;;;;;;4990354;28;20364;-74
2021/11/10 07:31:34;;;;;;;8.50;4.10;;;2.70;99.90;;;;;;4991297;28;20050;-73
2021/11/10 07:34:00;;;;;;;16.03;7.70;;;2.70;99.90;;;;;;4989986;28;20100;-74
2021/11/10 07:36:28;;;;;;;15.50;7.80;;;2.60;99.90;;;;;;4991448;28;20022;-74
2021/11/10 07:38:55;;;;;;;23.03;9.00;;;2.70;99.90;;;;;;5006229;28;20173;-74
2021/11/10 07:41:28;;;;;;;18.67;8.73;;;2.80;99.90;;;;;;4989888;28;20022;-73
2021/11/10 07:43:54;;;;;;;19.60;9.10;;;2.90;99.90;;;;;;4989110;28;20066;-74
2021/11/10 07:46:23;;;;;;;20.50;10.00;;;2.90;99.90;;;;;;4994611;28;20084;-74
2021/11/10 07:48:49;;;;;;;25.30;9.67;;;2.90;99.90;;;;;;5008330;28;20026;-73
2021/11/10 07:51:16;;;;;;;18.30;9.03;;;3.00;99.90;;;;;;4994608;28;20084;-74
2021/11/10 07:53:42;;;;;;;17.70;8.50;;;3.00;99.90;;;;;;4995707;28;20085;-74
2021/11/10 07:56:08;;;;;;;15.43;8.33;;;3.10;99.80;;;;;;4991155;28;20018;-74
2021/11/10 07:58:35;;;;;;;17.87;8.37;;;3.00;99.80;;;;;;4994388;28;20109;-74
2021/11/10 08:01:01;;;;;;;17.83;7.70;;;3.10;99.90;;;;;;5009032;28;20392;-74
2021/11/10 08:03:26;;;;;;;16.10;7.60;;;3.20;99.90;;;;;;4994195;28;20028;-74
2021/11/10 08:05:53;;;;;;;13.07;6.73;;;3.30;99.90;;;;;;4995385;28;20053;-74
2021/11/10 08:08:18;;;;;;;14.20;6.87;;;3.30;99.90;;;;;;5007776;28;20029;-73
2021/11/10 08:10:45;;;;;;;20.30;8.40;;;3.30;99.90;;;;;;4995232;28;20018;-74
2021/11/10 08:13:11;;;;;;;15.13;7.53;;;3.30;99.90;;;;;;4991424;28;20023;-74
2021/11/10 08:15:37;;;;;;;16.37;7.13;;;3.30;99.90;;;;;;4995036;28;20498;-75
2021/11/10 08:18:04;;;;;;;14.33;6.53;;;3.30;99.90;;;;;;4995388;28;20026;-74
2021/11/10 08:20:30;;;;;;;16.10;5.97;;;3.30;99.90;;;;;;4995477;28;20095;-74
2021/11/10 08:22:56;;;;;;;13.80;6.07;;;3.30;99.90;;;;;;4994607;28;20026;-75
2021/11/10 08:25:22;;;;;;;12.43;5.87;;;3.30;99.90;;;;;;4995916;28;20084;-73
2021/11/10 08:27:48;;;;;;;10.43;5.80;;;3.40;99.90;;;;;;4994933;28;20121;-74
2021/11/10 08:30:18;;;;;;;9.77;5.60;;;3.50;99.90;;;;;;4993390;28;20030;-74
2021/11/10 08:32:46;;;;;;;8.30;5.33;;;3.50;99.90;;;;;;4995798;28;20027;-73
2021/11/10 08:35:12;;;;;;;11.30;5.73;;;3.60;99.90;;;;;;5004323;28;20184;-73
2021/11/10 08:37:37;;;;;;;9.40;5.17;;;3.70;99.90;;;;;;4987152;28;20026;-74
2021/11/10 08:40:06;;;;;;;8.30;5.43;;;3.70;99.90;;;;;;4979610;28;20053;-73
2021/11/10 08:42:35;;;;;;;9.73;5.40;;;3.90;99.90;;;;;;4990605;28;20023;-74
2021/11/10 08:45:08;;;;;;;8.23;5.13;;;4.00;99.90;;;;;;4991637;28;20034;-74
2021/11/10 08:47:35;;;;;;;9.07;5.47;;;4.00;99.90;;;;;;4992372;28;20182;-74
2021/11/10 08:50:02;;;;;;;9.07;5.17;;;4.10;99.90;;;;;;4990331;28;20125;-74
2021/11/10 08:52:28;;;;;;;10.87;5.13;;;4.10;99.90;;;;;;4986323;28;20476;-74
2021/11/10 08:54:55;;;;;;;10.13;5.03;;;4.20;99.90;;;;;;4990790;28;20026;-74
2021/11/10 08:57:20;;;;;;;9.37;5.07;;;4.20;99.90;;;;;;4974147;28;20101;-74
2021/11/10 08:59:46;;;;;;;10.33;5.17;;;4.20;99.90;;;;;;4991843;28;20090;-74
2021/11/10 09:02:12;;;;;;;9.27;5.43;;;4.40;99.90;;;;;;4989922;28;20496;-74
2021/11/10 09:04:39;;;;;;;11.13;5.23;;;4.40;99.90;;;;;;5006863;28;20383;-74
2021/11/10 09:07:05;;;;;;;9.37;4.90;;;4.40;99.90;;;;;;4990600;28;20042;-73
2021/11/10 09:09:31;;;;;;;11.77;5.27;;;4.40;99.90;;;;;;4991933;28;20121;-74
2021/11/10 09:11:57;;;;;;;8.63;5.57;;;4.50;99.90;;;;;;5006234;28;20173;-76
2021/11/10 09:14:23;;;;;;;13.07;5.70;;;4.50;99.90;;;;;;4989721;28;20041;-74
2021/11/10 09:16:49;;;;;;;8.13;5.50;;;4.50;99.90;;;;;;4992666;28;20462;-74
2021/11/10 09:19:14;;;;;;;11.20;5.63;;;4.60;99.90;;;;;;4985258;28;20180;-74
2021/11/10 09:21:41;;;;;;;10.57;5.70;;;4.60;99.90;;;;;;4990305;28;20145;-74
2021/11/10 09:24:07;;;;;;;14.10;5.60;;;4.70;99.90;;;;;;4990463;28;20041;-74
2021/11/10 09:26:35;;;;;;;13.70;5.67;;;4.80;99.90;;;;;;4990992;28;20503;-73
2021/11/10 09:29:00;;;;;;;14.60;5.87;;;4.90;99.90;;;;;;4990308;28;20048;-74
2021/11/10 09:31:26;;;;;;;14.40;6.77;;;4.90;99.90;;;;;;4990341;28;20030;-74
2021/11/10 09:33:58;;;;;;;10.70;6.47;;;5.00;99.90;;;;;;5005629;28;20026;-73
2021/11/10 09:36:23;;;;;;;13.32;5.85;;;5.00;99.90;;;;;;4990374;28;20030;-73
2021/11/10 09:38:49;;;;;;;11.80;6.40;;;5.20;99.90;;;;;;4990202;28;20427;-73
2021/11/10 09:41:15;;;;;;;12.23;5.97;;;5.20;99.90;;;;;;4989923;28;20046;-72
2021/11/10 09:43:42;;;;;;;10.00;5.67;;;5.30;99.90;;;;;;4990876;28;20109;-72
2021/11/10 09:46:09;;;;;;;12.67;6.53;;;5.40;99.60;;;;;;4990868;28;20062;-72
2021/11/10 09:48:36;;;;;;;16.73;6.93;;;5.40;99.30;;;;;;4990277;28;20027;-71
2021/11/10 09:51:03;;;;;;;14.57;6.43;;;5.50;99.40;;;;;;4990879;28;20041;-72
2021/11/10 09:53:28;;;;;;;14.93;7.20;;;5.50;99.30;;;;;;4989845;28;20057;-72
2021/11/10 09:55:55;;;;;;;13.07;6.80;;;5.60;99.30;;;;;;4990505;28;20050;-72
2021/11/10 09:58:22;;;;;;;14.30;6.97;;;5.60;99.10;;;;;;4989439;28;20118;-73
2021/11/10 10:00:55;;;;;;;12.73;6.47;;;5.70;99.20;;;;;;4989653;28;20054;-72
2021/11/10 10:03:22;;;;;;;15.77;7.17;;;5.80;98.90;;;;;;4973913;28;20026;-72
2021/11/10 10:05:49;;;;;;;17.37;6.93;;;5.80;98.80;;;;;;4989152;28;20041;-72
2021/11/10 10:08:17;;;;;;;15.70;6.90;;;5.90;98.80;;;;;;4988938;28;20030;-73
2021/11/10 10:10:43;;;;;;;16.80;6.87;;;5.90;98.90;;;;;;4989729;28;20041;-73
2021/11/10 10:13:10;;;;;;;18.27;7.60;;;6.00;98.70;;;;;;4988699;28;20022;-72
2021/11/10 10:15:38;;;;;;;13.37;6.37;;;6.00;98.70;;;;;;4988432;28;20046;-73
2021/11/10 10:18:25;;;;;;;13.73;6.53;;;6.10;98.40;;;;;;5005205;28;20030;-72
2021/11/10 10:20:56;;;;;;;13.97;6.87;;;6.20;98.40;;;;;;4990055;28;20039;-72
2021/11/10 10:23:26;;;;;;;14.07;7.23;;;6.20;98.20;;;;;;4986897;28;20081;-73
2021/11/10 10:25:55;;;;;;;14.77;7.70;;;6.30;98.20;;;;;;5004878;28;20042;-72
2021/11/10 10:28:30;;;;;;;14.87;6.97;;;6.40;98.10;;;;;;4989780;28;20126;-72
2021/11/10 10:30:55;;;;;;;15.40;6.60;;;6.40;98.10;;;;;;5004749;28;20038;-73
2021/11/10 10:33:24;;;;;;;11.67;6.40;;;6.50;97.90;;;;;;4988358;28;20037;-73
2021/11/10 10:36:00;;;;;;;15.33;6.57;;;6.60;98.10;;;;;;5004349;28;20056;-73
2021/11/10 10:38:36;;;;;;;14.67;7.10;;;6.60;98.20;;;;;;4986750;28;20028;-73
2021/11/10 10:41:05;;;;;;;17.63;7.23;;;6.70;98.00;;;;;;4987262;28;20035;-73
2021/11/10 10:43:43;;;;;;;14.73;7.37;;;6.70;97.80;;;;;;4987776;28;20018;-73
2021/11/10 10:46:09;;;;;;;12.57;6.67;;;6.80;97.80;;;;;;4986942;28;20060;-73
2021/11/10 10:48:38;;;;;;;17.00;7.60;;;6.80;97.80;;;;;;5004460;28;20023;-74
2021/11/10 10:51:13;;;;;;;17.40;7.40;;;6.80;97.60;;;;;;5003768;28;20030;-73
2021/11/10 10:53:46;;;;;;;15.87;7.93;;;6.80;97.60;;;;;;5004607;28;20110;-74
2021/11/10 10:56:30;;;;;;;14.73;7.97;;;6.90;97.80;;;;;;4986392;28;20022;-75
2021/11/10 10:59:04;;;;;;;14.17;7.33;;;7.00;98.10;;;;;;4985920;28;20459;-75
2021/11/10 11:01:33;;;;;;;15.37;7.43;;;7.10;98.00;;;;;;4988173;28;20413;-75
2021/11/10 11:04:16;;;;;;;17.30;7.33;;;7.10;98.00;;;;;;4989058;28;20073;-76
2021/11/10 11:07:07;;;;;;;15.67;7.53;;;7.20;97.90;;;;;;4988522;28;20533;-74
2021/11/10 11:09:39;;;;;;;16.60;7.43;;;7.20;97.70;;;;;;4974776;28;20031;-74
2021/11/10 11:12:21;;;;;;;;;;;7.20;97.60;;;;;;4989044;28;20026;-73
2021/11/10 11:15:07;;;;;;;12.43;7.15;;;7.20;97.60;;;;;;4988546;28;19906;-74
2021/11/10 11:17:41;;;;;;;20.63;8.23;;;7.20;97.60;;;;;;4987811;28;20030;-74
2021/11/10 11:20:13;;;;;;;13.93;7.63;;;7.30;97.50;;;;;;4985792;28;20037;-74
2021/11/10 11:22:45;;;;;;;;;;;7.40;97.50;;;;;;5004553;28;20034;-74
2021/11/10 11:25:29;;;;;;;17.90;7.77;;;7.50;97.80;;;;;;4987379;28;19902;-73
2021/11/10 11:27:58;;;;;;;15.97;7.90;;;7.60;97.40;;;;;;5003702;28;20135;-73
2021/11/10 11:30:29;;;;;;;15.67;7.70;;;7.60;97.30;;;;;;4987451;28;20487;-73
2021/11/10 11:32:58;;;;;;;15.93;7.70;;;7.60;97.00;;;;;;5004019;28;20058;-74
2021/11/10 11:35:32;;;;;;;16.67;7.75;;;7.60;97.00;;;;;;4989181;28;20030;-73
2021/11/10 11:38:02;;;;;;;16.47;7.83;;;7.70;97.00;;;;;;4987565;28;20185;-75
2021/11/10 11:40:29;;;;;;;17.30;7.82;;;7.70;97.10;;;;;;4985280;28;20038;-74
2021/11/10 11:42:57;;;;;;;14.40;6.78;;;7.80;97.00;;;;;;4986324;28;20030;-74
2021/11/10 11:45:25;;;;;;;16.02;6.95;;;7.80;96.70;;;;;;4989661;28;20054;-74
2021/11/10 11:47:56;;;;;;;16.45;7.57;;;7.90;96.30;;;;;;4987632;28;20475;-74
2021/11/10 11:50:23;;;;;;;9.70;5.60;;;8.00;96.20;;;;;;4986979;28;20135;-74
2021/11/10 11:52:50;;;;;;;14.65;6.57;;;8.00;96.20;;;;;;4989456;28;20522;-75
2021/11/10 11:55:27;;;;;;;14.13;7.18;;;8.10;96.40;;;;;;5003533;28;20746;-75
2021/11/10 11:58:04;;;;;;;18.08;6.88;;;8.10;96.20;;;;;;4985900;28;20049;-72
2021/11/10 12:00:33;;;;;;;15.77;7.32;;;8.10;96.00;;;;;;4985962;28;20043;-74
2021/11/10 12:03:18;;;;;;;15.32;7.47;;;8.10;95.90;;;;;;5002446;28;20030;-75
2021/11/10 12:05:45;;;;;;;14.07;6.90;;;8.10;95.40;;;;;;4982849;28;20019;-74
2021/11/10 12:08:10;;;;;;;10.82;6.85;;;8.20;95.50;;;;;;4981145;28;20031;-74
2021/11/10 12:10:39;;;;;;;12.88;7.43;;;8.20;95.30;;;;;;5002038;28;20367;-74
2021/11/10 12:13:19;;;;;;;13.02;6.32;;;8.20;95.40;;;;;;5001350;28;20606;-73
2021/11/10 12:16:14;;;;;;;14.52;6.88;;;8.20;95.80;;;;;;4975350;28;20018;-73
2021/11/10 12:18:49;;;;;;;11.45;6.30;;;8.20;95.90;;;;;;4988221;28;20065;-73
2021/11/10 12:21:19;;;;;;;13.30;6.70;;;8.20;96.20;;;;;;4984000;28;20725;-73
2021/11/10 12:23:50;;;;;;;14.40;7.85;;;8.20;96.50;;;;;;4987069;28;20054;-73
2021/11/10 12:26:21;;;;;;;13.68;7.13;;;8.20;96.50;;;;;;4985811;28;20305;-73
2021/11/10 12:28:56;;;;;;;13.00;6.60;;;8.20;96.70;;;;;;4986678;28;20042;-74
2021/11/10 12:31:39;;;;;;;13.65;7.13;;;8.30;96.40;;;;;;4987993;28;20030;-75
2021/11/10 12:34:14;;;;;;;14.32;7.50;;;8.30;96.40;;;;;;4988201;28;20034;-75
2021/11/10 12:36:58;;;;;;;19.20;7.88;;;8.30;96.50;;;;;;4990338;28;20490;-74
2021/11/10 12:39:44;;;;;;;13.52;7.78;;;8.30;96.30;;;;;;4989387;28;20471;-73
2021/11/10 12:42:13;;;;;;;13.77;7.10;;;8.20;96.40;;;;;;5001681;28;20446;-73
2021/11/10 12:44:47;;;;;;;13.93;7.05;;;8.10;96.30;;;;;;5005729;28;20033;-74
2021/11/10 12:47:36;;;;;;;14.88;7.43;;;8.10;96.60;;;;;;5005591;28;20029;-74
2021/11/10 12:50:19;;;;;;;13.88;6.43;;;8.20;96.50;;;;;;4990658;28;20029;-73
2021/11/10 12:52:45;;;;;;;12.48;6.88;;;8.20;96.40;;;;;;5003341;28;20018;-73
2021/11/10 12:55:15;;;;;;;13.43;6.95;;;8.20;96.30;;;;;;4988820;28;20049;-74